Time;durP1;ratioP1;P1;durP2;ratioP2;P2;SDS_P1;SDS_P2;PMS_P1;PMS_P2;Temp;Humidity;BMP_temperature;BMP_pressure;BME280_temperature;BME280_humidity;BME280_pressure;Samples;Min_cycle;Max_cycle;Signal;HPM_P1;HPM_P2
2023/05/29 00:00:31;;;;;;;12.17;11.20;;;;;;;19.31;100.00;-14731.94;6243974;23;20191;-62
2023/05/29 00:02:58;;;;;;;12.67;11.53;;;;;;;19.20;100.00;-15052.44;6243896;23;20183;-62
2023/05/29 00:05:25;;;;;;;12.40;11.23;;;;;;;19.16;100.00;-15374.13;6244220;23;20157;-62
2023/05/29 00:07:52;;;;;;;11.13;10.43;;;;;;;19.22;100.00;-16987.06;6244546;23;20157;-62
2023/05/29 00:10:19;;;;;;;10.33;9.60;;;;;;;19.24;100.00;-17309.91;6244050;23;20164;-62
2023/05/29 00:12:47;;;;;;;10.30;9.67;;;;;;;19.25;100.00;-16665.50;6244068;23;20211;-61
2023/05/29 00:15:14;;;;;;;17.43;11.60;;;;;;;19.16;100.00;-16341.38;6244112;23;20157;-62
2023/05/29 00:17:42;;;;;;;11.50;10.87;;;;;;;19.15;100.00;-17630.13;6244405;23;20505;-62
2023/05/29 00:20:11;;;;;;;12.07;10.80;;;;;;;19.21;100.00;-17631.50;6244269;23;20255;-63
2023/05/29 00:22:38;;;;;;;11.50;11.00;;;;;;;19.10;100.00;-18273.25;6244255;23;20520;-62
2023/05/29 00:25:06;;;;;;;11.60;10.90;;;;;;;19.04;100.00;-18273.72;6244021;23;20161;-63
2023/05/29 00:27:33;;;;;;;13.53;12.63;;;;;;;19.07;100.00;-18274.44;6244049;23;20160;-62
2023/05/29 00:30:02;;;;;;;13.70;12.70;;;;;;;19.07;100.00;-18274.56;6244610;23;20157;-63
2023/05/29 00:32:29;;;;;;;13.43;12.63;;;;;;;19.14;100.00;-18276.09;6246011;23;20153;-63
2023/05/29 00:34:57;;;;;;;13.47;12.57;;;;;;;19.08;100.00;-18274.66;6246431;23;20167;-63
2023/05/29 00:37:24;;;;;;;13.87;12.83;;;;;;;19.10;100.00;-18275.16;6246109;23;20221;-62
2023/05/29 00:39:51;;;;;;;13.60;12.60;;;;;;;19.12;100.00;-18275.75;6246565;23;20161;-62
2023/05/29 00:42:18;;;;;;;13.47;12.67;;;;;;;18.96;100.00;-18271.81;6245909;23;20520;-63
2023/05/29 00:44:46;;;;;;;12.97;12.23;;;;;;;18.89;100.00;-18270.13;6245816;23;20161;-62
2023/05/29 00:47:14;;;;;;;14.33;13.13;;;;;;;18.83;100.00;-18268.69;6245942;23;20157;-62
2023/05/29 00:49:41;;;;;;;15.10;13.73;;;;;;;18.74;100.00;-18266.53;6246317;23;20595;-63
2023/05/29 00:52:10;;;;;;;14.87;13.87;;;;;;;18.79;100.00;-18267.88;6245927;23;20159;-62
2023/05/29 00:54:37;;;;;;;15.50;14.37;;;;;;;18.79;100.00;-18267.88;6246187;23;20639;-62
2023/05/29 00:57:06;;;;;;;15.33;14.13;;;;;;;18.83;100.00;-18268.69;6246155;23;20157;-62
2023/05/29 00:59:35;;;;;;;15.27;13.90;;;;;;;18.82;100.00;-18268.47;6246154;23;20571;-61
2023/05/29 01:02:03;;;;;;;15.33;13.87;;;;;;;18.66;100.00;-18264.88;6245606;23;20184;-63
2023/05/29 01:04:33;;;;;;;14.73;13.83;;;;;;;18.72;100.00;-18266.19;6245735;23;20161;-62
2023/05/29 01:07:02;;;;;;;15.37;14.23;;;;;;;18.63;100.00;-18264.03;6245686;23;20160;-62
2023/05/29 01:09:30;;;;;;;15.60;14.30;;;;;;;18.69;100.00;-18265.59;6245960;23;20243;-61
2023/05/29 01:12:04;;;;;;;15.57;13.67;;;;;;;18.58;100.00;-18262.97;6246041;23;20230;-62
2023/05/29 01:14:45;;;;;;;14.53;13.53;;;;;;;18.76;100.00;-18267.03;6246137;23;20608;-63
2023/05/29 01:17:19;;;;;;;15.33;14.30;;;;;;;18.67;100.00;-18265.13;6245663;23;20167;-62
2023/05/29 01:20:05;;;;;;;14.07;13.13;;;;;;;18.69;100.00;-18265.47;6246518;23;20157;-62
2023/05/29 01:22:42;;;;;;;16.50;13.57;;;;;;;18.70;100.00;-18265.84;6245362;23;20188;-61
2023/05/29 01:25:18;;;;;;;16.77;15.03;;;;;;;18.73;100.00;-18266.31;6246263;23;20156;-63
2023/05/29 01:27:48;;;;;;;17.07;15.27;;;;;;;18.68;100.00;-18265.34;6245681;23;20179;-62
2023/05/29 01:30:16;;;;;;;16.13;14.33;;;;;;;18.69;100.00;-18265.59;6245883;23;20550;-63
2023/05/29 01:32:44;;;;;;;16.33;14.83;;;;;;;18.64;100.00;-18264.28;6245529;23;20152;-62
2023/05/29 01:35:11;;;;;;;20.47;16.27;;;;;;;18.70;100.00;-18265.84;6245580;23;20160;-62
2023/05/29 01:37:38;;;;;;;18.30;16.07;;;;;;;18.76;100.00;-18267.16;6245766;23;20161;-62
2023/05/29 01:40:05;;;;;;;17.60;16.10;;;;;;;18.81;100.00;-18268.34;6245290;23;20153;-62
2023/05/29 01:42:33;;;;;;;17.03;15.63;;;;;;;18.74;100.00;-18266.53;6244884;23;20207;-62
2023/05/29 01:45:06;;;;;;;17.40;15.87;;;;;;;18.92;100.00;-18270.84;6245609;23;20433;-62
2023/05/29 01:47:34;;;;;;;17.53;15.83;;;;;;;18.95;100.00;-18271.56;6245259;23;20211;-62
2023/05/29 01:50:03;;;;;;;19.57;17.67;;;;;;;19.00;100.00;-18272.75;6245448;23;20156;-63
2023/05/29 01:52:30;;;;;;;19.77;17.97;;;;;;;19.01;100.00;-18273.13;6245657;23;20181;-63
2023/05/29 01:54:57;;;;;;;22.80;18.63;;;;;;;18.97;100.00;-18272.16;6245623;23;20627;-62
2023/05/29 01:57:25;;;;;;;25.20;19.27;;;;;;;18.90;100.00;-18270.50;6245134;23;20161;-62
2023/05/29 01:59:52;;;;;;;20.50;18.47;;;;;;;18.98;100.00;-18272.28;6245993;23;20169;-63
2023/05/29 02:02:22;;;;;;;21.23;18.77;;;;;;;19.05;100.00;-18274.06;6245427;23;20181;-62
2023/05/29 02:04:51;;;;;;;20.57;18.57;;;;;;;18.90;100.00;-18270.38;6245347;23;20219;-63
2023/05/29 02:07:19;;;;;;;21.10;19.10;;;;;;;19.06;100.00;-18274.19;6245218;23;20160;-62
2023/05/29 02:09:46;;;;;;;20.60;18.77;;;;;;;19.09;100.00;-18274.91;6244998;23;20239;-62
2023/05/29 02:12:13;;;;;;;20.67;18.63;;;;;;;19.15;100.00;-18276.47;6219030;23;20175;-63
2023/05/29 02:14:40;;;;;;;21.07;19.03;;;;;;;19.20;100.00;-18277.53;6245465;23;20465;-63
2023/05/29 02:17:07;;;;;;;19.33;17.53;;;;;;;19.24;100.00;-18278.38;6245122;23;20504;-63
2023/05/29 02:19:36;;;;;;;20.77;18.63;;;;;;;19.20;100.00;-18277.41;6244972;23;20161;-63
2023/05/29 02:22:03;;;;;;;20.43;18.30;;;;;;;19.30;100.00;-18279.94;6245119;23;20180;-63
2023/05/29 02:24:30;;;;;;;18.80;17.50;;;;;;;19.26;100.00;-18278.97;6244796;23;20164;-62
2023/05/29 02:26:57;;;;;;;18.77;17.27;;;;;;;19.38;100.00;-18281.72;6245176;23;20600;-63
2023/05/29 02:29:24;;;;;;;18.07;16.67;;;;;;;19.36;100.00;-18281.22;6244865;23;20157;-63
2023/05/29 02:31:52;;;;;;;20.37;17.30;;;;;;;19.30;100.00;-18279.94;6245039;23;20164;-64
2023/05/29 02:34:22;;;;;;;17.70;16.03;;;;;;;19.21;100.00;-18277.66;6244822;23;20161;-62
2023/05/29 02:36:51;;;;;;;17.57;16.23;;;;;;;19.26;100.00;-18278.84;6245783;23;20465;-62
2023/05/29 02:39:18;;;;;;;16.47;15.30;;;;;;;19.24;100.00;-18278.38;6244855;23;20172;-63
2023/05/29 02:41:45;;;;;;;17.77;16.13;;;;;;;19.10;100.00;-18275.16;6244764;23;20606;-62
2023/05/29 02:44:12;;;;;;;18.20;16.33;;;;;;;19.04;100.00;-18273.72;6245198;23;20161;-62
2023/05/29 02:46:39;;;;;;;15.93;14.90;;;;;;;19.11;100.00;-18275.38;6245170;23;20524;-62
2023/05/29 02:49:06;;;;;;;16.87;15.00;;;;;;;19.13;100.00;-18275.97;6245099;23;20549;-63
2023/05/29 02:51:33;;;;;;;16.17;14.47;;;;;;;19.12;100.00;-18275.63;6244746;23;20298;-63
2023/05/29 02:54:01;;;;;;;15.43;14.23;;;;;;;19.14;100.00;-18276.09;6244320;23;20216;-63
2023/05/29 02:56:28;;;;;;;15.83;14.63;;;;;;;19.11;100.00;-18275.50;6244545;23;20164;-63
2023/05/29 02:58:55;;;;;;;15.13;14.00;;;;;;;19.12;100.00;-18275.75;6244935;23;20157;-63
2023/05/29 03:01:22;;;;;;;15.20;13.97;;;;;;;19.09;100.00;-18274.91;6244952;23;20168;-62
2023/05/29 03:03:49;;;;;;;15.80;14.40;;;;;;;19.09;100.00;-18274.91;6244959;23;20180;-63
2023/05/29 03:06:17;;;;;;;15.37;14.23;;;;;;;19.02;100.00;-18273.22;6244573;23;20161;-62
2023/05/29 03:08:44;;;;;;;14.70;13.60;;;;;;;18.97;100.00;-18272.03;6245209;23;20169;-65
2023/05/29 03:11:15;;;;;;;15.13;14.20;;;;;;;19.07;100.00;-18274.56;6244595;23;20172;-62
2023/05/29 03:13:41;;;;;;;15.27;14.07;;;;;;;19.11;100.00;-18275.38;6244860;23;20471;-62
2023/05/29 03:16:08;;;;;;;16.27;14.77;;;;;;;19.10;100.00;-18275.16;6244661;23;20157;-62
2023/05/29 03:18:35;;;;;;;19.80;16.47;;;;;;;19.05;100.00;-18274.06;6244819;23;20161;-62
2023/05/29 03:21:04;;;;;;;17.63;16.37;;;;;;;19.08;100.00;-18274.66;6244265;23;20234;-62
2023/05/29 03:23:31;;;;;;;17.10;15.57;;;;;;;19.05;100.00;-18273.97;6244641;23;20508;-62
2023/05/29 03:25:58;;;;;;;16.30;15.23;;;;;;;18.94;100.00;-18271.31;6244809;23;20192;-63
2023/05/29 03:28:26;;;;;;;16.57;15.37;;;;;;;19.09;100.00;-18275.03;6244292;23;20220;-62
2023/05/29 03:30:53;;;;;;;15.93;14.37;;;;;;;19.12;100.00;-18275.75;6244375;23;20235;-63
2023/05/29 03:33:20;;;;;;;15.77;14.27;;;;;;;19.24;100.00;-18278.38;6244658;23;20153;-62
2023/05/29 03:35:47;;;;;;;15.20;14.17;;;;;;;19.37;100.00;-18281.59;6244286;23;20203;-63
2023/05/29 03:38:14;;;;;;;15.77;14.37;;;;;;;19.46;100.00;-18283.63;6244341;23;20157;-62
2023/05/29 03:40:41;;;;;;;16.70;15.03;;;;;;;19.50;100.00;-18284.69;6244643;23;20161;-62
2023/05/29 03:43:08;;;;;;;15.73;13.87;;;;;;;19.61;100.00;-18285.44;6244058;23;20228;-63
2023/05/29 03:45:36;;;;;;;14.53;13.20;;;;;;;19.63;100.00;-17640.84;6244460;23;20470;-62
2023/05/29 03:48:03;;;;;;;15.33;13.43;;;;;;;19.52;100.00;-16671.16;6244490;23;20623;-63
2023/05/29 03:50:30;;;;;;;20.13;14.20;;;;;;;19.51;100.00;-15058.16;6244562;23;20157;-63
2023/05/29 03:52:57;;;;;;;15.80;14.30;;;;;;;19.47;100.00;-16347.72;6244235;23;20168;-63
2023/05/29 03:55:24;;;;;;;23.43;13.80;;;;;;;19.32;100.00;-17634.00;6244220;23;20243;-62
2023/05/29 03:57:50;;;;;;;15.17;12.97;;;;;;;19.33;100.00;-18278.75;6243879;23;20164;-62
2023/05/29 04:00:18;;;;;;;13.80;12.57;;;;;;;19.21;100.00;-18277.78;6244332;23;20488;-62
2023/05/29 04:02:46;;;;;;;14.50;13.10;;;;;;;19.26;100.00;-18278.97;6244469;23;20180;-61
2023/05/29 04:05:13;;;;;;;17.97;13.20;;;;;;;19.28;100.00;-18279.44;6243918;23;20171;-62
2023/05/29 04:07:40;;;;;;;13.50;12.60;;;;;;;19.34;100.00;-18280.88;6244033;23;20160;-62
2023/05/29 04:10:08;;;;;;;16.87;12.43;;;;;;;19.16;100.00;-18276.69;6243910;23;20161;-62
2023/05/29 04:12:35;;;;;;;13.27;11.90;;;;;;;19.23;100.00;-18278.13;6244196;23;20210;-63
2023/05/29 04:15:02;;;;;;;14.53;13.13;;;;;;;18.93;100.00;-18271.22;6244427;23;20244;-62
2023/05/29 04:17:29;;;;;;;13.10;12.10;;;;;;;19.20;100.00;-18277.53;6244358;23;20160;-62
2023/05/29 04:19:58;;;;;;;13.90;12.70;;;;;;;19.04;100.00;-18273.72;6243877;23;20157;-62
2023/05/29 04:22:25;;;;;;;14.23;12.93;;;;;;;19.05;100.00;-18274.06;6244108;23;20239;-65
2023/05/29 04:24:52;;;;;;;13.67;12.40;;;;;;;19.05;100.00;-18274.06;6244044;23;20600;-63
2023/05/29 04:27:19;;;;;;;16.23;13.03;;;;;;;19.08;100.00;-18274.78;6243988;23;20196;-62
2023/05/29 04:29:45;;;;;;;15.13;13.73;;;;;;;19.10;100.00;-18275.25;6244161;23;20163;-63
2023/05/29 04:32:13;;;;;;;14.93;13.57;;;;;;;19.14;100.00;-18276.09;6244406;23;20323;-62
2023/05/29 04:34:40;;;;;;;14.27;13.17;;;;;;;19.21;100.00;-18277.66;6244015;23;20195;-62
2023/05/29 04:37:08;;;;;;;14.90;13.77;;;;;;;19.22;100.00;-18277.91;6244180;23;20591;-63
2023/05/29 04:39:35;;;;;;;14.43;13.43;;;;;;;19.21;100.00;-18277.78;6244466;23;20164;-63
2023/05/29 04:42:02;;;;;;;33.37;16.13;;;;;;;19.27;100.00;-18279.22;6243787;23;20200;-63
2023/05/29 04:44:29;;;;;;;17.07;14.23;;;;;;;19.27;100.00;-18279.22;6217077;23;20199;-61
2023/05/29 04:46:57;;;;;;;15.57;13.00;;;;;;;19.37;100.00;-18281.59;6244256;23;20160;-62
2023/05/29 04:49:24;;;;;;;21.83;15.33;;;;;;;19.33;100.00;-18280.53;6244151;23;20667;-62
2023/05/29 04:51:53;;;;;;;16.67;14.40;;;;;;;19.26;100.00;-18278.97;6243938;23;20157;-62
2023/05/29 04:54:23;;;;;;;16.03;14.57;;;;;;;19.23;100.00;-18278.25;6244023;23;20153;-63
2023/05/29 04:56:50;;;;;;;16.40;14.97;;;;;;;19.21;100.00;-18277.66;6243923;23;20164;-63
2023/05/29 04:59:17;;;;;;;15.13;13.87;;;;;;;19.12;100.00;-18275.75;6244606;23;20153;-63
2023/05/29 05:01:44;;;;;;;17.13;15.33;;;;;;;18.99;100.00;-18272.63;6244988;23;20165;-62
2023/05/29 05:04:11;;;;;;;16.87;14.97;;;;;;;19.04;100.00;-18273.72;6244199;23;20192;-62
2023/05/29 05:06:38;;;;;;;16.37;14.80;;;;;;;18.81;100.00;-18268.22;6244306;23;20167;-62
2023/05/29 05:09:05;;;;;;;15.73;13.90;;;;;;;19.09;100.00;-18274.91;6244532;23;20167;-63
2023/05/29 05:11:34;;;;;;;15.00;13.70;;;;;;;19.28;100.00;-18279.31;6244440;23;20157;-62
2023/05/29 05:14:01;;;;;;;16.33;14.93;;;;;;;19.34;100.00;-18280.75;6243656;23;20153;-63
2023/05/29 05:16:27;;;;;;;18.33;14.20;;;;;;;19.43;100.00;-18283.03;6243845;23;20179;-62
2023/05/29 05:18:54;;;;;;;14.30;13.03;;;;;;;19.54;100.00;-18285.66;6245653;23;20204;-63
2023/05/29 05:21:21;;;;;;;15.90;12.77;;;;;;;19.69;100.00;-18289.00;6246395;23;20157;-63
2023/05/29 05:23:48;;;;;;;14.83;13.37;;;;;;;19.76;100.00;-18290.78;6246829;23;20520;-63
2023/05/29 05:26:15;;;;;;;21.43;13.53;;;;;;;19.86;100.00;-18291.16;6246958;23;20179;-63
2023/05/29 05:28:43;;;;;;;32.17;14.83;;;;;;;19.95;100.00;-18293.31;6246334;23;20161;-63
2023/05/29 05:31:11;;;;;;;13.90;12.73;;;;;;;19.89;100.00;-14096.50;6246354;23;20157;-63
2023/05/29 05:33:38;;;;;;;20.90;13.20;;;;;;;19.88;100.00;-12804.38;6245723;23;20218;-63
2023/05/29 05:36:05;;;;;;;19.37;12.67;;;;;;;19.92;100.00;-13774.13;6248759;23;20162;-64
2023/05/29 05:38:32;;;;;;;43.43;15.30;;;;;;;19.98;100.00;-13128.97;6246315;23;20172;-60
2023/05/29 05:40:59;;;;;;;20.77;13.87;;;;;;;20.05;100.00;-12160.66;6245189;23;20618;-58
2023/05/29 05:43:29;;;;;;;20.33;13.03;;;;;;;19.95;100.00;-11189.59;6244717;23;20204;-59
2023/05/29 05:45:58;;;;;;;23.53;13.60;;;;;;;19.96;100.00;-12805.66;6244783;23;20243;-59
2023/05/29 05:48:24;;;;;;;45.67;15.30;;;;;;;19.97;100.00;-12482.69;6244774;23;20245;-58
2023/05/29 05:50:51;;;;;;;18.90;13.23;;;;;;;19.94;100.00;-13128.34;6244604;23;20173;-58
2023/05/29 05:53:18;;;;;;;42.20;15.63;;;;;;;20.12;100.00;-11515.03;6245018;23;20584;-59
2023/05/29 05:55:45;;;;;;;18.17;13.60;;;;;;;20.09;100.00;-10868.00;6245211;23;20161;-59
2023/05/29 05:58:12;;;;;;;26.23;14.00;;;;;;;20.07;100.00;-10867.75;6244780;23;20456;-59
2023/05/29 06:00:40;;;;;;;36.57;14.17;;;;;;;20.11;100.00;-12161.44;6244970;23;20156;-60
2023/05/29 06:03:09;;;;;;;28.17;13.77;;;;;;;20.24;100.00;-11839.84;6244630;23;20188;-60
2023/05/29 06:05:37;;;;;;;19.50;13.20;;;;;;;20.22;100.00;-11839.66;6245658;23;20157;-60
2023/05/29 06:08:05;;;;;;;29.67;14.30;;;;;;;20.37;100.00;-11194.81;6244745;23;20161;-61
2023/05/29 06:10:32;;;;;;;29.60;14.23;;;;;;;20.22;100.00;-9899.13;6244807;23;20616;-59
2023/05/29 06:12:59;;;;;;;29.07;14.33;;;;;;;20.36;100.00;-9900.56;6245001;23;20491;-59
2023/05/29 06:15:26;;;;;;;31.20;13.83;;;;;;;20.40;100.00;-10224.53;6244568;23;20499;-59
2023/05/29 06:17:55;;;;;;;25.57;13.73;;;;;;;20.41;100.00;-10548.25;6244371;23;20240;-59
2023/05/29 06:20:25;;;;;;;14.53;12.13;;;;;;;20.44;100.00;-10225.03;6244151;23;20156;-58
2023/05/29 06:22:52;;;;;;;12.10;10.90;;;;;;;20.47;100.00;-7311.50;6244501;23;20452;-59
2023/05/29 06:25:21;;;;;;;17.80;11.67;;;;;;;20.26;100.00;-8605.09;6244856;23;20185;-59
2023/05/29 06:27:48;;;;;;;13.63;12.33;;;;;;;20.04;100.00;-17650.22;6244312;23;20164;-60
2023/05/29 06:30:16;;;;;;;19.00;13.37;;;;;;;19.78;100.00;-18291.16;6244034;23;20169;-59
2023/05/29 06:32:43;;;;;;;44.20;18.17;;;;;;;19.61;100.00;-18287.31;6243935;23;20208;-59
2023/05/29 06:35:10;;;;;;;25.77;15.50;;;;;;;19.36;100.00;-18281.22;6244806;23;20228;-59
2023/05/29 06:37:39;;;;;;;19.33;15.40;;;;;;;19.07;100.00;-18274.44;6244553;23;20157;-57
2023/05/29 06:40:07;;;;;;;18.33;16.20;;;;;;;18.97;100.00;-18272.03;6244706;23;20552;-60
2023/05/29 06:42:34;;;;;;;16.77;15.00;;;;;;;18.76;100.00;-18267.16;6243969;23;20222;-59
2023/05/29 06:45:01;;;;;;;18.87;15.70;;;;;;;18.48;100.00;-18260.56;6244951;23;20187;-60
2023/05/29 06:47:29;;;;;;;17.63;14.67;;;;;;;18.58;100.00;-18262.97;6244896;23;20490;-59
2023/05/29 06:49:55;;;;;;;15.13;13.53;;;;;;;18.47;100.00;-18260.22;6244744;23;20670;-60
2023/05/29 06:52:22;;;;;;;13.80;12.77;;;;;;;18.35;100.00;-18257.34;6244587;23;20622;-61
2023/05/29 06:54:51;;;;;;;15.03;13.73;;;;;;;18.37;100.00;-18257.94;6244477;23;20247;-60
2023/05/29 06:57:18;;;;;;;21.90;16.50;;;;;;;18.42;100.00;-18259.13;6217330;23;20173;-59
2023/05/29 06:59:45;;;;;;;24.87;18.10;;;;;;;18.39;100.00;-18258.41;6244383;23;20275;-60
2023/05/29 07:02:11;;;;;;;17.40;15.57;;;;;;;18.20;100.00;-18253.88;6243913;23;20169;-59
2023/05/29 07:04:39;;;;;;;18.40;16.57;;;;;;;18.38;100.00;-18258.06;6243952;23;20187;-60
2023/05/29 07:07:06;;;;;;;24.37;19.40;;;;;;;18.43;100.00;-18259.25;6244352;23;20196;-61
2023/05/29 07:09:33;;;;;;;20.00;17.43;;;;;;;18.50;100.00;-18261.03;6244017;23;20157;-59
2023/05/29 07:12:01;;;;;;;22.77;16.80;;;;;;;18.52;100.00;-18261.53;6244668;23;20161;-58
2023/05/29 07:14:28;;;;;;;19.27;17.10;;;;;;;18.51;100.00;-18261.28;6244564;23;20211;-60
2023/05/29 07:16:55;;;;;;;21.70;17.37;;;;;;;18.43;100.00;-18259.38;6243731;23;20176;-59
2023/05/29 07:19:22;;;;;;;18.70;16.87;;;;;;;18.36;100.00;-18255.81;6244374;23;20157;-59
2023/05/29 07:21:51;;;;;;;26.00;18.90;;;;;;;18.15;100.00;-18252.69;6243821;23;20157;-58
2023/05/29 07:24:18;;;;;;;26.67;19.70;;;;;;;18.31;100.00;-18256.38;6243874;23;20183;-59
2023/05/29 07:26:45;;;;;;;32.33;21.43;;;;;;;18.33;100.00;-18256.88;6244048;23;20192;-59
2023/05/29 07:29:17;;;;;;;28.60;21.23;;;;;;;18.39;100.00;-18258.41;6243808;23;20252;-60
2023/05/29 07:31:44;;;;;;;32.93;22.20;;;;;;;18.37;100.00;-18257.81;6244244;23;20251;-58
2023/05/29 07:34:11;;;;;;;40.47;21.23;;;;;;;18.37;100.00;-18257.94;6244183;23;20192;-59
2023/05/29 07:36:57;;;;;;;32.70;20.30;;;;;;;18.39;100.00;-18258.41;6244091;23;20495;-59
2023/05/29 07:39:24;;;;;;;30.23;19.87;;;;;;;18.37;100.00;-18257.94;6243393;23;20240;-57
2023/05/29 07:41:52;;;;;;;23.30;13.87;;;;;;;18.09;100.00;-18251.25;6244020;23;20175;-59
2023/05/29 07:44:20;;;;;;;22.50;12.53;;;;;;;18.25;100.00;-18253.19;6244101;23;20263;-58
2023/05/29 07:46:48;;;;;;;28.87;10.53;;;;;;;18.13;100.00;-18250.31;6243864;23;20611;-58
2023/05/29 07:49:15;;;;;;;24.30;10.20;;;;;;;18.08;100.00;-18249.13;6243675;23;20167;-58
2023/05/29 07:51:42;;;;;;;25.20;11.50;;;;;;;18.09;100.00;-18249.34;6243383;23;20157;-57
2023/05/29 07:54:09;;;;;;;19.07;8.97;;;;;;;18.09;100.00;-18249.34;6243577;23;20156;-59
2023/05/29 07:56:36;;;;;;;27.83;11.23;;;;;;;18.19;100.00;-18251.75;6243890;23;20157;-58
2023/05/29 07:59:03;;;;;;;32.53;12.60;;;;;;;18.16;100.00;-18251.03;6243916;23;20563;-57
2023/05/29 08:01:31;;;;;;;25.33;11.17;;;;;;;18.05;100.00;-18248.53;6217278;23;20227;-57
2023/05/29 08:03:58;;;;;;;31.90;11.57;;;;;;;18.14;100.00;-17928.91;6242728;23;20180;-57
2023/05/29 08:06:25;;;;;;;43.67;13.37;;;;;;;18.18;100.00;-18251.50;6243376;23;20247;-58
2023/05/29 08:08:52;;;;;;;17.40;10.33;;;;;;;18.21;100.00;-18252.34;6243071;23;20157;-58
2023/05/29 08:11:22;;;;;;;18.67;11.00;;;;;;;18.22;100.00;-18252.47;6243675;23;20160;-59
2023/05/29 08:13:49;;;;;;;26.10;12.67;;;;;;;18.30;100.00;-17932.53;6244006;23;20243;-60
2023/05/29 08:16:16;;;;;;;17.90;11.10;;;;;;;18.33;100.00;-17933.38;6243226;23;20172;-58
2023/05/29 08:18:45;;;;;;;17.93;9.23;;;;;;;18.17;100.00;-17929.63;6244509;23;20544;-59
2023/05/29 08:21:12;;;;;;;13.17;9.80;;;;;;;18.23;100.00;-17609.44;6243891;23;20466;-58
2023/05/29 08:23:39;;;;;;;10.83;9.93;;;;;;;18.25;100.00;-17609.78;6243838;23;20184;-58
2023/05/29 08:26:07;;;;;;;13.63;9.17;;;;;;;18.31;100.00;-17932.91;6243448;23;20199;-58
2023/05/29 08:28:34;;;;;;;11.50;9.53;;;;;;;18.26;100.00;-17931.84;6243637;23;20215;-59
2023/05/29 08:31:00;;;;;;;14.50;10.20;;;;;;;18.44;100.00;-18257.59;6243969;23;20157;-58
2023/05/29 08:33:29;;;;;;;10.33;9.07;;;;;;;18.49;100.00;-17937.09;6243467;23;20199;-58
2023/05/29 08:35:58;;;;;;;11.97;9.07;;;;;;;18.39;100.00;-17934.78;6217110;23;20196;-58
2023/05/29 08:38:25;;;;;;;9.93;8.90;;;;;;;18.45;100.00;-17936.19;6243208;23;20164;-58
2023/05/29 08:40:53;;;;;;;11.93;8.50;;;;;;;18.52;100.00;-17937.81;6243764;23;20233;-58
2023/05/29 08:43:23;;;;;;;11.43;9.37;;;;;;;18.57;100.00;-17938.97;6216966;23;20197;-61
2023/05/29 08:45:54;;;;;;;10.83;9.33;;;;;;;18.55;100.00;-17938.50;6243435;23;20181;-59
2023/05/29 08:48:27;;;;;;;10.57;9.47;;;;;;;18.58;100.00;-17939.22;6243471;23;20168;-58
2023/05/29 08:50:56;;;;;;;8.57;8.00;;;;;;;18.55;100.00;-17938.50;6244388;23;20236;-59
2023/05/29 08:53:27;;;;;;;8.63;7.93;;;;;;;18.58;100.00;-17939.22;6245811;23;20157;-59
2023/05/29 08:55:55;;;;;;;9.60;8.70;;;;;;;18.61;100.00;-17939.81;6245295;23;20244;-59
2023/05/29 08:58:23;;;;;;;9.17;8.30;;;;;;;18.71;100.00;-18264.06;6245778;23;20464;-59
2023/05/29 09:00:50;;;;;;;9.90;8.30;;;;;;;18.69;100.00;-18263.72;6245445;23;20206;-58
2023/05/29 09:03:20;;;;;;;8.97;8.27;;;;;;;18.68;100.00;-18263.34;6245396;23;20172;-59
2023/05/29 09:05:48;;;;;;;8.93;8.17;;;;;;;18.74;100.00;-18264.78;6245511;23;20260;-59
2023/05/29 09:08:16;;;;;;;8.20;7.60;;;;;;;18.63;100.00;-18262.28;6245767;23;20600;-59
2023/05/29 09:10:46;;;;;;;9.97;9.27;;;;;;;18.56;100.00;-17938.63;6245564;23;20157;-59
2023/05/29 09:13:15;;;;;;;9.27;8.87;;;;;;;18.75;100.00;-18264.91;6245689;23;20172;-59
2023/05/29 09:15:43;;;;;;;14.63;8.47;;;;;;;18.53;100.00;-18259.88;6245554;23;20236;-59
2023/05/29 09:18:10;;;;;;;10.27;9.67;;;;;;;18.86;100.00;-18267.53;6245493;23;20157;-59
2023/05/29 09:20:37;;;;;;;9.40;8.57;;;;;;;18.90;100.00;-18268.59;6245291;23;20157;-59
2023/05/29 09:23:06;;;;;;;8.13;7.63;;;;;;;18.99;100.00;-18270.75;6245614;23;20171;-59
2023/05/29 09:25:35;;;;;;;8.13;7.63;;;;;;;19.07;100.00;-18272.66;6245622;23;20631;-59
2023/05/29 09:28:05;;;;;;;8.57;8.10;;;;;;;19.13;100.00;-18274.09;6245515;23;20564;-59
2023/05/29 09:30:35;;;;;;;7.83;7.53;;;;;;;19.08;100.00;-18272.91;6245328;23;20163;-59
2023/05/29 09:33:03;;;;;;;8.50;8.10;;;;;;;19.04;100.00;-18271.81;6245182;23;20186;-59
2023/05/29 09:35:34;;;;;;;8.27;7.77;;;;;;;19.01;100.00;-18271.22;6218283;23;20188;-59
2023/05/29 09:38:02;;;;;;;15.00;14.17;;;;;;;19.32;100.00;-18280.41;6245496;23;20527;-59
2023/05/29 09:40:32;;;;;;;9.90;9.40;;;;;;;19.29;100.00;-18279.69;6244844;23;20160;-59
2023/05/29 09:43:08;;;;;;;10.80;9.70;;;;;;;19.32;100.00;-18280.28;6245704;23;20259;-58
2023/05/29 09:45:39;;;;;;;10.20;9.53;;;;;;;19.32;100.00;-18280.41;6245381;23;20181;-58
2023/05/29 09:48:07;;;;;;;9.30;8.80;;;;;;;19.44;100.00;-18283.28;6245033;23;20157;-59
2023/05/29 09:50:35;;;;;;;9.73;9.30;;;;;;;19.71;100.00;-18289.47;6245235;23;20165;-59
2023/05/29 09:53:03;;;;;;;8.40;7.93;;;;;;;19.92;100.00;-18294.47;6245320;23;20163;-59
2023/05/29 09:55:31;;;;;;;7.67;7.37;;;;;;;20.10;100.00;-18296.88;6245286;23;20264;-60
2023/05/29 09:57:59;;;;;;;10.57;9.97;;;;;;;20.11;100.00;-18297.00;6244983;23;20163;-59
2023/05/29 10:00:28;;;;;;;11.77;11.20;;;;;;;20.20;100.00;-18301.03;6245424;23;20169;-57
2023/05/29 10:02:58;;;;;;;9.20;8.73;;;;;;;20.27;100.00;-18302.72;6217857;23;20157;-58
2023/05/29 10:05:25;;;;;;;22.10;20.17;;;;;;;20.25;100.00;-18302.34;6220139;23;20184;-59
2023/05/29 10:07:55;;;;;;;10.00;9.43;;;;;;;20.50;100.00;-18308.31;6245999;23;20167;-59
2023/05/29 10:10:26;;;;;;;9.33;8.93;;;;;;;20.52;100.00;-18308.78;6245648;23;20244;-59
2023/05/29 10:12:55;;;;;;;9.40;8.87;;;;;;;20.56;100.00;-18309.63;6245842;23;20168;-59
2023/05/29 10:15:30;;;;;;;10.50;9.93;;;;;;;20.60;100.00;-18310.59;6245328;23;20192;-59
2023/05/29 10:18:04;;;;;;;9.07;8.67;;;;;;;20.79;100.00;-18315.09;6246603;23;20591;-60
2023/05/29 10:20:32;;;;;;;9.33;9.03;;;;;;;20.94;100.00;-18318.56;6244713;23;20157;-60
2023/05/29 10:23:02;;;;;;;12.50;11.80;;;;;;;21.10;100.00;-18322.25;6244776;23;20161;-60
2023/05/29 10:25:31;;;;;;;12.57;11.93;;;;;;;21.24;100.00;-18325.59;6244568;23;20220;-58
2023/05/29 10:28:00;;;;;;;15.90;15.00;;;;;;;21.26;100.00;-18326.06;6245387;23;20164;-59
2023/05/29 10:30:36;;;;;;;11.83;11.10;;;;;;;21.27;100.00;-18326.44;6245339;23;20227;-59
2023/05/29 10:33:32;;;;;;;8.93;8.43;;;;;;;21.43;100.00;-18330.13;6244757;23;20280;-57
2023/05/29 10:36:08;;;;;;;10.10;9.17;;;;;;;21.70;100.00;-18336.53;6244697;23;20592;-58
2023/05/29 10:38:35;;;;;;;9.35;8.90;;;;;;;21.77;100.00;-18338.19;6244438;23;20161;-58
2023/05/29 10:41:29;;;;;;;10.18;9.68;;;;;;;21.85;100.00;-18340.00;6244819;23;20157;-57
2023/05/29 10:43:57;;;;;;;10.10;9.35;;;;;;;21.70;100.00;-18336.53;6243969;23;20279;-58
2023/05/29 10:47:02;;;;;;;8.55;8.15;;;;;;;21.53;100.00;-18332.50;6244628;23;20212;-58
2023/05/29 10:49:30;;;;;;;9.37;8.97;;;;;;;21.39;100.00;-18329.28;6244145;23;20240;-58
2023/05/29 10:51:59;;;;;;;9.93;9.23;;;;;;;20.90;100.00;-18317.59;6244453;23;20171;-58
2023/05/29 10:54:27;;;;;;;10.50;9.20;;;;;;;20.77;100.00;-18314.63;6244127;23;20211;-58
2023/05/29 10:56:57;;;;;;;11.07;9.13;;;;;;;20.66;100.00;-18311.91;6244165;23;20173;-57
2023/05/29 10:59:27;;;;;;;7.83;7.43;;;;;;;20.54;100.00;-18309.16;6244453;23;20187;-58
2023/05/29 11:01:54;;;;;;;8.90;8.10;;;;;;;20.48;100.00;-18307.72;6244078;23;20161;-59
2023/05/29 11:04:32;;;;;;;8.37;7.87;;;;;;;20.42;100.00;-18306.28;6244415;23;20667;-58
2023/05/29 11:07:03;;;;;;;7.43;7.23;;;;;;;20.23;100.00;-18301.88;6244036;23;20160;-59
2023/05/29 11:09:34;;;;;;;8.60;7.80;;;;;;;20.09;100.00;-18298.53;6218305;23;20161;-58